• Join FlightAware (Why Join?)
  • Login
  • US Flag 
02:06AM EDT


 

Airport Tracker/Info


-or-


 

Live Flight TrackerFlight Track Log ✈ N70AG ✈ 04-Aug-2013 ✈ KSCK - KVNY

Flight Track Log - Related Links

Times and Time Zones

All times are in EDT time to prevent confusion due to time zone crossing. See the N70AG flight status page for this flight to view local times or setup timezone preferences in your user account.

Time Position Orientation Groundspeed Altitude Reporting Facility
EDT Latitude Longitude Course Direction KTS MPH feet Rate Location/Type
02:26PM 37.8833 -121.2833 165° South 210 242 3,000  Level Northern Cal TRACON
02:27PM 37.8333 -121.2667 165° South 268 308 6,600 3,600 Climbing Northern Cal TRACON
02:28PM 37.7833 -121.1833 127° Southeast 285 328 10,300 2,760 Climbing Northern Cal TRACON
02:29PM 37.7333 -121.1000 127° Southeast 346 398 12,200 2,640 Climbing Northern Cal TRACON
02:31PM 37.6039 -120.9042 130° Southeast 370 426 18,200 2,280 Climbing Oakland Center
02:32PM 37.5347 -120.7989 130° Southeast 387 445 19,000 1,560 Climbing Oakland Center
02:33PM 37.4653 -120.6922 129° Southeast 393 452 21,500 2,520 Climbing Oakland Center
02:34PM 37.3931 -120.5811 129° Southeast 408 470 24,300 2,460 Climbing Oakland Center
02:35PM 37.3178 -120.4658 129° Southeast 425 489 26,600 2,520 Climbing Oakland Center
02:36PM 37.2381 -120.3497 131° Southeast 437 503 29,500 2,100 Climbing Oakland Center
02:37PM 37.1433 -120.2136 131° Southeast 432 497 31,000 720 Climbing Oakland Center
02:38PM 37.0397 -120.1394 150° Southeast 421 484 31,000 960 Level Oakland Center
02:39PM 36.9328 -120.0861 158° South 415 478 33,000 1,920 Climbing Oakland Center
02:40PM 36.8269 -120.0325 158° South 411 473 35,000 960 Climbing Oakland Center
02:41PM 36.7153 -119.9781 159° South 432 497 35,000  Level Oakland Center
02:42PM 36.5950 -119.9189 158° South 461 531 35,000  Level Oakland Center
02:43PM 36.4753 -119.8586 158° South 465 535 35,000  Level Oakland Center
02:44PM 36.3553 -119.7992 158° South 464 534 35,000  Level Oakland Center
02:45PM 36.2103 -119.7269 158° South 467 537 35,000  Level Oakland Center
02:46PM 36.0889 -119.6681 159° South 467 537 35,000  Level Oakland Center
02:47PM 35.9658 -119.6239 164° South 464 534 35,000  Level Oakland Center
02:48PM 35.8372 -119.6197 178° South 462 532 35,000  Level Oakland Center
02:49PM 35.7097 -119.6264 182° South 458 527 35,000  Level Oakland Center
02:50PM 35.5819 -119.6311 182° South 456 525 35,000  Level Los Angeles Center
02:51PM 35.4533 -119.6353 182° South 457 526 35,000 -300 Level Los Angeles Center
02:52PM 35.3258 -119.6317 179° South 458 527 34,400 -1,200 Descending Los Angeles Center
02:53PM 35.2000 -119.5858 163° South 472 543 32,600 -1,920 Descending Los Angeles Center
02:54PM 35.0869 -119.4981 148° Southeast 481 554 30,500 -2,880 Descending Los Angeles Center
02:56PM 34.9572 -119.3861 145° Southeast 478 550 26,700 -3,480 Descending Los Angeles Center
02:57PM 34.8564 -119.3017 145° Southeast 450 518 23,300 -3,300 Descending Los Angeles Center
02:58PM 34.7631 -119.2211 145° Southeast 417 480 20,000 -3,060 Descending Los Angeles Center
02:59PM 34.6719 -119.1431 145° Southeast 402 463 17,000 -3,060 Descending Los Angeles Center
03:00PM 34.5756 -119.0667 147° Southeast 387 445 13,700 -2,820 Descending Los Angeles Center
03:01PM 34.4972 -119.0036 146° Southeast 324 373 11,200 -1,440 Descending Los Angeles Center
03:02PM 34.4442 -118.9311 132° Southeast 292 336 10,800 -1,080 Descending Los Angeles Center
03:03PM 34.4394 -118.8311 93° East 296 341 9,000 -1,680 Descending Los Angeles Center
03:04PM 34.4386 -118.7322 91° East 294 338 7,400 -1,500 Descending Los Angeles Center
03:05PM 34.4497 -118.6164 83° East 290 334 6,000 -1,080 Descending Los Angeles Center
03:06PM 34.4447 -118.5264 94° East 284 327 5,200 -480 Descending Los Angeles Center
03:07PM 34.3797 -118.5075 167° South 252 290 5,000 -600 Descending Los Angeles Center
03:08PM 34.3233 -118.5028 176° South 216 249 4,000 -1,260 Descending Los Angeles Center
03:09PM 34.2772 -118.4964 173° South 181 208 2,500 -1,380 Descending Los Angeles Center
03:10PM 34.2308 -118.4933 177° South 149 171 1,200 -780 Descending Los Angeles Center
03:11PM 34.1969 -118.4933 180° South 147 169 900 -300 Descending Los Angeles Center
03:13PM 34.2000 -118.4833 180° South  Level FlightAware Approximate